sensor_id;sensor_type;location;lat;lon;timestamp;P1;durP1;ratioP1;P2;durP2;ratioP2
65759;SDS011;52496;51.082;5.066;2023-06-22T00:00:00;7.55;;;5.05;;
65759;SDS011;52496;51.082;5.066;2023-06-22T00:02:30;7.57;;;5.18;;
65759;SDS011;52496;51.082;5.066;2023-06-22T00:05:01;8.48;;;4.78;;
65759;SDS011;52496;51.082;5.066;2023-06-22T00:07:31;8.65;;;4.45;;
65759;SDS011;52496;51.082;5.066;2023-06-22T00:10:02;8.48;;;4.78;;
65759;SDS011;52496;51.082;5.066;2023-06-22T00:12:32;8.73;;;4.85;;
65759;SDS011;52496;51.082;5.066;2023-06-22T00:15:03;8.48;;;4.28;;
65759;SDS011;52496;51.082;5.066;2023-06-22T00:17:34;8.45;;;5.00;;
65759;SDS011;52496;51.082;5.066;2023-06-22T00:20:07;7.75;;;4.57;;
65759;SDS011;52496;51.082;5.066;2023-06-22T00:22:38;7.35;;;4.80;;
65759;SDS011;52496;51.082;5.066;2023-06-22T00:25:09;5.90;;;3.92;;
65759;SDS011;52496;51.082;5.066;2023-06-22T00:27:40;7.28;;;4.40;;
65759;SDS011;52496;51.082;5.066;2023-06-22T00:30:11;7.68;;;4.53;;
65759;SDS011;52496;51.082;5.066;2023-06-22T00:32:42;8.00;;;4.95;;
65759;SDS011;52496;51.082;5.066;2023-06-22T00:35:12;7.70;;;4.93;;
65759;SDS011;52496;51.082;5.066;2023-06-22T00:37:43;8.38;;;5.50;;
65759;SDS011;52496;51.082;5.066;2023-06-22T00:40:14;8.23;;;4.68;;
65759;SDS011;52496;51.082;5.066;2023-06-22T00:42:44;6.72;;;4.63;;
65759;SDS011;52496;51.082;5.066;2023-06-22T00:45:15;7.07;;;4.70;;
65759;SDS011;52496;51.082;5.066;2023-06-22T00:47:45;8.07;;;5.03;;
65759;SDS011;52496;51.082;5.066;2023-06-22T00:50:17;8.65;;;5.53;;
65759;SDS011;52496;51.082;5.066;2023-06-22T00:52:51;7.40;;;4.43;;
65759;SDS011;52496;51.082;5.066;2023-06-22T00:55:29;7.78;;;5.07;;
65759;SDS011;52496;51.082;5.066;2023-06-22T00:57:59;8.43;;;4.72;;
65759;SDS011;52496;51.082;5.066;2023-06-22T01:00:30;8.40;;;4.82;;
65759;SDS011;52496;51.082;5.066;2023-06-22T01:03:01;8.15;;;5.25;;
65759;SDS011;52496;51.082;5.066;2023-06-22T01:05:32;7.25;;;5.25;;
65759;SDS011;52496;51.082;5.066;2023-06-22T01:10:56;9.60;;;5.60;;
65759;SDS011;52496;51.082;5.066;2023-06-22T01:16:44;8.18;;;4.90;;
65759;SDS011;52496;51.082;5.066;2023-06-22T01:19:37;7.63;;;5.07;;
65759;SDS011;52496;51.082;5.066;2023-06-22T01:22:25;8.05;;;5.10;;
65759;SDS011;52496;51.082;5.066;2023-06-22T01:27:53;10.32;;;5.15;;
65759;SDS011;52496;51.082;5.066;2023-06-22T01:30:31;7.47;;;5.30;;
65759;SDS011;52496;51.082;5.066;2023-06-22T01:33:03;8.63;;;5.00;;
65759;SDS011;52496;51.082;5.066;2023-06-22T01:35:35;7.13;;;4.65;;
65759;SDS011;52496;51.082;5.066;2023-06-22T01:38:09;8.20;;;4.95;;
65759;SDS011;52496;51.082;5.066;2023-06-22T01:40:40;8.20;;;5.10;;
65759;SDS011;52496;51.082;5.066;2023-06-22T01:43:11;6.93;;;4.40;;
65759;SDS011;52496;51.082;5.066;2023-06-22T01:45:42;7.60;;;4.80;;
65759;SDS011;52496;51.082;5.066;2023-06-22T01:48:15;8.07;;;5.28;;
65759;SDS011;52496;51.082;5.066;2023-06-22T01:50:45;7.72;;;5.28;;
65759;SDS011;52496;51.082;5.066;2023-06-22T01:53:17;7.80;;;4.95;;
65759;SDS011;52496;51.082;5.066;2023-06-22T01:55:47;7.85;;;5.28;;
65759;SDS011;52496;51.082;5.066;2023-06-22T01:58:20;8.65;;;5.28;;
65759;SDS011;52496;51.082;5.066;2023-06-22T02:00:55;8.68;;;5.38;;
65759;SDS011;52496;51.082;5.066;2023-06-22T02:03:31;7.68;;;5.35;;
65759;SDS011;52496;51.082;5.066;2023-06-22T02:09:14;8.80;;;5.22;;
65759;SDS011;52496;51.082;5.066;2023-06-22T02:11:47;8.38;;;5.30;;
65759;SDS011;52496;51.082;5.066;2023-06-22T02:14:24;9.35;;;5.30;;
65759;SDS011;52496;51.082;5.066;2023-06-22T02:16:55;10.27;;;5.70;;
65759;SDS011;52496;51.082;5.066;2023-06-22T02:19:29;8.50;;;5.85;;
65759;SDS011;52496;51.082;5.066;2023-06-22T02:22:03;9.30;;;5.80;;
65759;SDS011;52496;51.082;5.066;2023-06-22T02:24:34;8.45;;;5.57;;
65759;SDS011;52496;51.082;5.066;2023-06-22T02:27:04;9.57;;;6.40;;
65759;SDS011;52496;51.082;5.066;2023-06-22T02:29:37;9.30;;;5.63;;
65759;SDS011;52496;51.082;5.066;2023-06-22T02:32:07;9.95;;;6.07;;
65759;SDS011;52496;51.082;5.066;2023-06-22T02:34:38;11.38;;;6.38;;
65759;SDS011;52496;51.082;5.066;2023-06-22T02:37:08;9.38;;;6.22;;
65759;SDS011;52496;51.082;5.066;2023-06-22T02:39:40;10.98;;;6.68;;
65759;SDS011;52496;51.082;5.066;2023-06-22T02:42:11;10.55;;;6.97;;
65759;SDS011;52496;51.082;5.066;2023-06-22T02:44:41;10.48;;;6.60;;
65759;SDS011;52496;51.082;5.066;2023-06-22T02:47:12;11.40;;;7.78;;
65759;SDS011;52496;51.082;5.066;2023-06-22T02:49:43;11.45;;;7.47;;
65759;SDS011;52496;51.082;5.066;2023-06-22T02:52:15;9.77;;;6.85;;
65759;SDS011;52496;51.082;5.066;2023-06-22T02:54:45;10.25;;;7.25;;
65759;SDS011;52496;51.082;5.066;2023-06-22T02:57:16;10.45;;;7.15;;
65759;SDS011;52496;51.082;5.066;2023-06-22T02:59:46;12.75;;;7.45;;
65759;SDS011;52496;51.082;5.066;2023-06-22T03:02:17;13.55;;;7.95;;
65759;SDS011;52496;51.082;5.066;2023-06-22T03:04:48;11.25;;;7.45;;
65759;SDS011;52496;51.082;5.066;2023-06-22T03:07:21;11.25;;;7.38;;
65759;SDS011;52496;51.082;5.066;2023-06-22T03:09:52;12.20;;;7.63;;
65759;SDS011;52496;51.082;5.066;2023-06-22T03:12:22;14.18;;;7.70;;
65759;SDS011;52496;51.082;5.066;2023-06-22T03:14:53;13.50;;;8.15;;
65759;SDS011;52496;51.082;5.066;2023-06-22T03:17:24;11.90;;;7.90;;
65759;SDS011;52496;51.082;5.066;2023-06-22T03:19:55;12.98;;;7.30;;
65759;SDS011;52496;51.082;5.066;2023-06-22T03:22:25;13.73;;;8.68;;
65759;SDS011;52496;51.082;5.066;2023-06-22T03:24:56;13.18;;;9.02;;
65759;SDS011;52496;51.082;5.066;2023-06-22T03:27:26;13.65;;;9.25;;
65759;SDS011;52496;51.082;5.066;2023-06-22T03:29:57;15.10;;;9.57;;
65759;SDS011;52496;51.082;5.066;2023-06-22T03:32:27;14.95;;;8.65;;
65759;SDS011;52496;51.082;5.066;2023-06-22T03:34:58;15.35;;;9.77;;
65759;SDS011;52496;51.082;5.066;2023-06-22T03:37:29;13.57;;;9.32;;
65759;SDS011;52496;51.082;5.066;2023-06-22T03:39:59;11.95;;;8.90;;
65759;SDS011;52496;51.082;5.066;2023-06-22T03:42:30;14.25;;;10.02;;
65759;SDS011;52496;51.082;5.066;2023-06-22T03:45:01;15.05;;;9.30;;
65759;SDS011;52496;51.082;5.066;2023-06-22T03:47:33;15.35;;;9.48;;
65759;SDS011;52496;51.082;5.066;2023-06-22T03:50:04;14.35;;;9.85;;
65759;SDS011;52496;51.082;5.066;2023-06-22T03:52:36;13.65;;;9.38;;
65759;SDS011;52496;51.082;5.066;2023-06-22T03:55:06;14.30;;;8.82;;
65759;SDS011;52496;51.082;5.066;2023-06-22T03:57:37;15.18;;;9.15;;
65759;SDS011;52496;51.082;5.066;2023-06-22T04:00:08;14.45;;;8.93;;
65759;SDS011;52496;51.082;5.066;2023-06-22T04:02:40;13.20;;;9.32;;
65759;SDS011;52496;51.082;5.066;2023-06-22T04:05:10;16.67;;;10.25;;
65759;SDS011;52496;51.082;5.066;2023-06-22T04:07:41;14.93;;;10.75;;
65759;SDS011;52496;51.082;5.066;2023-06-22T04:10:11;16.98;;;9.60;;
65759;SDS011;52496;51.082;5.066;2023-06-22T04:12:42;16.00;;;9.43;;
65759;SDS011;52496;51.082;5.066;2023-06-22T04:15:12;14.85;;;9.68;;
65759;SDS011;52496;51.082;5.066;2023-06-22T04:17:43;16.73;;;10.20;;
65759;SDS011;52496;51.082;5.066;2023-06-22T04:20:13;16.83;;;9.20;;
65759;SDS011;52496;51.082;5.066;2023-06-22T04:22:44;15.35;;;10.30;;
65759;SDS011;52496;51.082;5.066;2023-06-22T04:25:16;15.23;;;10.15;;
65759;SDS011;52496;51.082;5.066;2023-06-22T04:27:47;14.38;;;9.10;;
65759;SDS011;52496;51.082;5.066;2023-06-22T04:30:18;15.02;;;9.38;;
65759;SDS011;52496;51.082;5.066;2023-06-22T04:32:48;14.95;;;9.77;;
65759;SDS011;52496;51.082;5.066;2023-06-22T04:35:26;13.10;;;8.57;;
65759;SDS011;52496;51.082;5.066;2023-06-22T04:37:58;14.38;;;9.05;;
65759;SDS011;52496;51.082;5.066;2023-06-22T04:40:29;13.98;;;8.93;;
65759;SDS011;52496;51.082;5.066;2023-06-22T04:42:59;16.23;;;10.40;;
65759;SDS011;52496;51.082;5.066;2023-06-22T04:45:32;12.07;;;9.02;;
65759;SDS011;52496;51.082;5.066;2023-06-22T04:48:04;14.32;;;9.55;;
65759;SDS011;52496;51.082;5.066;2023-06-22T04:50:38;13.18;;;9.85;;
65759;SDS011;52496;51.082;5.066;2023-06-22T04:53:09;15.55;;;10.27;;
65759;SDS011;52496;51.082;5.066;2023-06-22T04:55:42;14.98;;;9.07;;
65759;SDS011;52496;51.082;5.066;2023-06-22T04:58:15;16.08;;;9.68;;
65759;SDS011;52496;51.082;5.066;2023-06-22T05:00:46;12.52;;;9.25;;
65759;SDS011;52496;51.082;5.066;2023-06-22T05:03:16;14.40;;;9.63;;
65759;SDS011;52496;51.082;5.066;2023-06-22T05:05:48;15.05;;;9.82;;
65759;SDS011;52496;51.082;5.066;2023-06-22T05:08:18;15.60;;;10.35;;
65759;SDS011;52496;51.082;5.066;2023-06-22T05:10:49;13.93;;;9.13;;
65759;SDS011;52496;51.082;5.066;2023-06-22T05:13:19;16.20;;;9.75;;
65759;SDS011;52496;51.082;5.066;2023-06-22T05:15:51;16.00;;;10.10;;
65759;SDS011;52496;51.082;5.066;2023-06-22T05:18:22;12.95;;;9.40;;
65759;SDS011;52496;51.082;5.066;2023-06-22T05:20:53;14.43;;;9.60;;
65759;SDS011;52496;51.082;5.066;2023-06-22T05:23:23;12.77;;;8.80;;
65759;SDS011;52496;51.082;5.066;2023-06-22T05:25:54;14.48;;;9.80;;
65759;SDS011;52496;51.082;5.066;2023-06-22T05:28:27;11.45;;;8.52;;
65759;SDS011;52496;51.082;5.066;2023-06-22T05:30:58;15.32;;;10.02;;
65759;SDS011;52496;51.082;5.066;2023-06-22T05:33:28;17.85;;;11.27;;
65759;SDS011;52496;51.082;5.066;2023-06-22T05:35:59;13.52;;;9.32;;
65759;SDS011;52496;51.082;5.066;2023-06-22T05:38:29;16.50;;;10.98;;
65759;SDS011;52496;51.082;5.066;2023-06-22T05:41:00;16.08;;;10.50;;
65759;SDS011;52496;51.082;5.066;2023-06-22T05:43:32;15.48;;;9.95;;
65759;SDS011;52496;51.082;5.066;2023-06-22T05:46:03;15.10;;;9.85;;
65759;SDS011;52496;51.082;5.066;2023-06-22T05:48:34;16.27;;;11.98;;
65759;SDS011;52496;51.082;5.066;2023-06-22T05:51:05;15.93;;;10.80;;
65759;SDS011;52496;51.082;5.066;2023-06-22T05:53:35;13.23;;;9.55;;
65759;SDS011;52496;51.082;5.066;2023-06-22T05:56:06;15.35;;;10.52;;
65759;SDS011;52496;51.082;5.066;2023-06-22T05:58:36;15.45;;;10.48;;
65759;SDS011;52496;51.082;5.066;2023-06-22T06:01:07;13.82;;;10.10;;
65759;SDS011;52496;51.082;5.066;2023-06-22T06:03:37;17.20;;;10.93;;
65759;SDS011;52496;51.082;5.066;2023-06-22T06:06:11;16.50;;;11.30;;
65759;SDS011;52496;51.082;5.066;2023-06-22T06:08:42;18.08;;;13.20;;
65759;SDS011;52496;51.082;5.066;2023-06-22T06:11:12;21.40;;;15.02;;
65759;SDS011;52496;51.082;5.066;2023-06-22T06:13:43;22.30;;;13.70;;
65759;SDS011;52496;51.082;5.066;2023-06-22T06:16:13;22.20;;;13.98;;
65759;SDS011;52496;51.082;5.066;2023-06-22T06:18:44;22.85;;;15.73;;
65759;SDS011;52496;51.082;5.066;2023-06-22T06:21:14;19.85;;;13.63;;
65759;SDS011;52496;51.082;5.066;2023-06-22T06:23:45;19.58;;;12.50;;
65759;SDS011;52496;51.082;5.066;2023-06-22T06:26:17;20.50;;;12.88;;
65759;SDS011;52496;51.082;5.066;2023-06-22T06:28:47;17.35;;;12.82;;
65759;SDS011;52496;51.082;5.066;2023-06-22T06:31:18;20.70;;;14.13;;
65759;SDS011;52496;51.082;5.066;2023-06-22T06:33:48;19.42;;;13.48;;
65759;SDS011;52496;51.082;5.066;2023-06-22T06:36:19;19.20;;;13.45;;
65759;SDS011;52496;51.082;5.066;2023-06-22T06:38:49;17.35;;;12.13;;
65759;SDS011;52496;51.082;5.066;2023-06-22T06:41:20;15.45;;;11.05;;
65759;SDS011;52496;51.082;5.066;2023-06-22T06:43:51;16.67;;;11.18;;
65759;SDS011;52496;51.082;5.066;2023-06-22T06:46:22;13.68;;;10.98;;
65759;SDS011;52496;51.082;5.066;2023-06-22T06:48:52;14.20;;;10.55;;
65759;SDS011;52496;51.082;5.066;2023-06-22T06:51:23;19.60;;;11.55;;
65759;SDS011;52496;51.082;5.066;2023-06-22T06:53:53;14.88;;;10.07;;
65759;SDS011;52496;51.082;5.066;2023-06-22T06:56:24;18.42;;;11.43;;
65759;SDS011;52496;51.082;5.066;2023-06-22T06:58:54;17.30;;;12.63;;
65759;SDS011;52496;51.082;5.066;2023-06-22T07:01:25;16.80;;;11.95;;
65759;SDS011;52496;51.082;5.066;2023-06-22T07:03:56;17.00;;;11.98;;
65759;SDS011;52496;51.082;5.066;2023-06-22T07:06:27;15.27;;;10.57;;
65759;SDS011;52496;51.082;5.066;2023-06-22T07:09:02;13.70;;;10.15;;
65759;SDS011;52496;51.082;5.066;2023-06-22T07:11:33;14.75;;;10.93;;
65759;SDS011;52496;51.082;5.066;2023-06-22T07:14:05;12.50;;;9.45;;
65759;SDS011;52496;51.082;5.066;2023-06-22T07:16:36;13.63;;;9.48;;
65759;SDS011;52496;51.082;5.066;2023-06-22T07:19:07;13.43;;;8.70;;
65759;SDS011;52496;51.082;5.066;2023-06-22T07:21:37;11.70;;;8.77;;
65759;SDS011;52496;51.082;5.066;2023-06-22T07:24:09;12.88;;;8.50;;
65759;SDS011;52496;51.082;5.066;2023-06-22T07:26:39;11.68;;;7.68;;
65759;SDS011;52496;51.082;5.066;2023-06-22T07:29:19;12.52;;;7.93;;
65759;SDS011;52496;51.082;5.066;2023-06-22T07:31:51;11.50;;;7.50;;
65759;SDS011;52496;51.082;5.066;2023-06-22T07:34:22;13.30;;;7.05;;
65759;SDS011;52496;51.082;5.066;2023-06-22T07:36:52;10.48;;;7.75;;
65759;SDS011;52496;51.082;5.066;2023-06-22T07:39:23;12.60;;;7.45;;
65759;SDS011;52496;51.082;5.066;2023-06-22T07:41:55;12.90;;;7.03;;
65759;SDS011;52496;51.082;5.066;2023-06-22T07:44:26;14.35;;;7.25;;
65759;SDS011;52496;51.082;5.066;2023-06-22T07:46:56;10.60;;;7.05;;
65759;SDS011;52496;51.082;5.066;2023-06-22T07:49:28;10.43;;;7.68;;
65759;SDS011;52496;51.082;5.066;2023-06-22T07:51:59;10.63;;;7.75;;
65759;SDS011;52496;51.082;5.066;2023-06-22T07:54:31;16.73;;;8.85;;
65759;SDS011;52496;51.082;5.066;2023-06-22T07:57:01;10.35;;;6.93;;
65759;SDS011;52496;51.082;5.066;2023-06-22T07:59:33;13.98;;;8.75;;
65759;SDS011;52496;51.082;5.066;2023-06-22T08:02:03;14.40;;;7.95;;
65759;SDS011;52496;51.082;5.066;2023-06-22T08:04:34;14.02;;;7.72;;
65759;SDS011;52496;51.082;5.066;2023-06-22T08:07:05;11.20;;;8.00;;
65759;SDS011;52496;51.082;5.066;2023-06-22T08:09:36;10.52;;;7.68;;
65759;SDS011;52496;51.082;5.066;2023-06-22T08:12:07;11.82;;;7.95;;
65759;SDS011;52496;51.082;5.066;2023-06-22T08:14:38;12.30;;;9.00;;
65759;SDS011;52496;51.082;5.066;2023-06-22T08:17:08;15.30;;;10.07;;
65759;SDS011;52496;51.082;5.066;2023-06-22T08:19:39;14.20;;;9.30;;
65759;SDS011;52496;51.082;5.066;2023-06-22T08:22:10;14.05;;;10.20;;
65759;SDS011;52496;51.082;5.066;2023-06-22T08:24:40;13.25;;;9.07;;
65759;SDS011;52496;51.082;5.066;2023-06-22T08:27:11;17.45;;;10.55;;
65759;SDS011;52496;51.082;5.066;2023-06-22T08:29:51;15.05;;;9.98;;
65759;SDS011;52496;51.082;5.066;2023-06-22T08:32:25;15.20;;;10.82;;
65759;SDS011;52496;51.082;5.066;2023-06-22T08:34:59;14.65;;;11.27;;
65759;SDS011;52496;51.082;5.066;2023-06-22T08:37:29;13.88;;;10.75;;
65759;SDS011;52496;51.082;5.066;2023-06-22T08:40:06;17.67;;;12.60;;
65759;SDS011;52496;51.082;5.066;2023-06-22T08:42:40;16.92;;;11.05;;
65759;SDS011;52496;51.082;5.066;2023-06-22T08:45:11;19.40;;;12.95;;
65759;SDS011;52496;51.082;5.066;2023-06-22T08:47:43;19.63;;;12.57;;
65759;SDS011;52496;51.082;5.066;2023-06-22T08:50:13;17.73;;;12.30;;
65759;SDS011;52496;51.082;5.066;2023-06-22T08:52:43;18.58;;;12.57;;
65759;SDS011;52496;51.082;5.066;2023-06-22T08:55:15;21.55;;;14.48;;
65759;SDS011;52496;51.082;5.066;2023-06-22T08:57:46;22.65;;;15.10;;
65759;SDS011;52496;51.082;5.066;2023-06-22T09:00:17;18.95;;;13.75;;
65759;SDS011;52496;51.082;5.066;2023-06-22T09:02:50;20.38;;;14.48;;
65759;SDS011;52496;51.082;5.066;2023-06-22T09:05:21;21.85;;;15.52;;
65759;SDS011;52496;51.082;5.066;2023-06-22T09:07:51;18.83;;;13.55;;
65759;SDS011;52496;51.082;5.066;2023-06-22T09:10:25;23.73;;;15.70;;
65759;SDS011;52496;51.082;5.066;2023-06-22T09:12:56;24.83;;;15.98;;
65759;SDS011;52496;51.082;5.066;2023-06-22T09:15:27;24.95;;;16.73;;
65759;SDS011;52496;51.082;5.066;2023-06-22T09:17:58;22.70;;;15.10;;
65759;SDS011;52496;51.082;5.066;2023-06-22T09:20:28;23.17;;;15.85;;
65759;SDS011;52496;51.082;5.066;2023-06-22T09:22:59;22.50;;;17.25;;
65759;SDS011;52496;51.082;5.066;2023-06-22T09:25:33;26.88;;;16.88;;
65759;SDS011;52496;51.082;5.066;2023-06-22T09:28:03;24.15;;;17.38;;
65759;SDS011;52496;51.082;5.066;2023-06-22T09:30:34;26.40;;;17.52;;
65759;SDS011;52496;51.082;5.066;2023-06-22T09:33:04;28.27;;;19.30;;
65759;SDS011;52496;51.082;5.066;2023-06-22T09:35:34;29.13;;;18.40;;
65759;SDS011;52496;51.082;5.066;2023-06-22T09:38:05;27.90;;;19.40;;
65759;SDS011;52496;51.082;5.066;2023-06-22T09:40:35;25.10;;;18.55;;
65759;SDS011;52496;51.082;5.066;2023-06-22T09:43:10;31.17;;;19.98;;
65759;SDS011;52496;51.082;5.066;2023-06-22T09:45:41;29.20;;;19.80;;
65759;SDS011;52496;51.082;5.066;2023-06-22T09:48:12;37.55;;;23.70;;
65759;SDS011;52496;51.082;5.066;2023-06-22T09:50:43;30.48;;;21.00;;
65759;SDS011;52496;51.082;5.066;2023-06-22T09:53:14;34.47;;;23.40;;
65759;SDS011;52496;51.082;5.066;2023-06-22T09:55:44;34.22;;;23.63;;
65759;SDS011;52496;51.082;5.066;2023-06-22T09:58:14;39.20;;;24.70;;
65759;SDS011;52496;51.082;5.066;2023-06-22T10:00:48;32.20;;;23.58;;
65759;SDS011;52496;51.082;5.066;2023-06-22T10:03:19;34.40;;;24.02;;
65759;SDS011;52496;51.082;5.066;2023-06-22T10:05:50;32.38;;;23.52;;
65759;SDS011;52496;51.082;5.066;2023-06-22T10:08:20;39.38;;;26.92;;
65759;SDS011;52496;51.082;5.066;2023-06-22T10:10:50;38.95;;;25.30;;
65759;SDS011;52496;51.082;5.066;2023-06-22T10:13:21;39.95;;;27.52;;
65759;SDS011;52496;51.082;5.066;2023-06-22T10:15:51;42.63;;;29.48;;
65759;SDS011;52496;51.082;5.066;2023-06-22T10:18:23;43.10;;;29.60;;
65759;SDS011;52496;51.082;5.066;2023-06-22T10:20:53;34.47;;;23.40;;
65759;SDS011;52496;51.082;5.066;2023-06-22T10:23:24;36.10;;;25.27;;
65759;SDS011;52496;51.082;5.066;2023-06-22T10:25:54;35.03;;;24.10;;
65759;SDS011;52496;51.082;5.066;2023-06-22T10:28:27;39.28;;;26.85;;
65759;SDS011;52496;51.082;5.066;2023-06-22T10:30:58;41.63;;;29.38;;
65759;SDS011;52496;51.082;5.066;2023-06-22T10:33:29;40.13;;;27.75;;
65759;SDS011;52496;51.082;5.066;2023-06-22T10:36:00;42.17;;;28.15;;
65759;SDS011;52496;51.082;5.066;2023-06-22T10:38:30;38.88;;;28.48;;
65759;SDS011;52496;51.082;5.066;2023-06-22T10:41:01;41.80;;;26.77;;
65759;SDS011;52496;51.082;5.066;2023-06-22T10:43:31;39.05;;;28.45;;
65759;SDS011;52496;51.082;5.066;2023-06-22T10:46:02;35.60;;;25.85;;
65759;SDS011;52496;51.082;5.066;2023-06-22T10:48:33;38.53;;;28.17;;
65759;SDS011;52496;51.082;5.066;2023-06-22T10:51:03;37.17;;;26.23;;
65759;SDS011;52496;51.082;5.066;2023-06-22T10:53:34;38.10;;;25.20;;
65759;SDS011;52496;51.082;5.066;2023-06-22T10:56:04;37.22;;;25.35;;
65759;SDS011;52496;51.082;5.066;2023-06-22T10:58:35;39.47;;;25.88;;
65759;SDS011;52496;51.082;5.066;2023-06-22T11:01:05;34.58;;;24.65;;
65759;SDS011;52496;51.082;5.066;2023-06-22T11:03:36;39.58;;;27.13;;
65759;SDS011;52496;51.082;5.066;2023-06-22T11:06:06;37.03;;;24.95;;
65759;SDS011;52496;51.082;5.066;2023-06-22T11:08:37;37.15;;;25.55;;
65759;SDS011;52496;51.082;5.066;2023-06-22T11:11:08;34.25;;;24.10;;
65759;SDS011;52496;51.082;5.066;2023-06-22T11:13:39;36.22;;;25.35;;
65759;SDS011;52496;51.082;5.066;2023-06-22T11:16:10;32.35;;;24.55;;
65759;SDS011;52496;51.082;5.066;2023-06-22T11:18:41;34.85;;;24.63;;
65759;SDS011;52496;51.082;5.066;2023-06-22T11:21:11;38.95;;;26.88;;
65759;SDS011;52496;51.082;5.066;2023-06-22T11:23:42;36.53;;;26.50;;
65759;SDS011;52496;51.082;5.066;2023-06-22T11:26:12;38.60;;;25.73;;
65759;SDS011;52496;51.082;5.066;2023-06-22T11:28:43;36.92;;;25.65;;
65759;SDS011;52496;51.082;5.066;2023-06-22T11:31:14;36.78;;;25.33;;
65759;SDS011;52496;51.082;5.066;2023-06-22T11:33:44;39.80;;;26.10;;
65759;SDS011;52496;51.082;5.066;2023-06-22T11:36:16;35.85;;;25.23;;
65759;SDS011;52496;51.082;5.066;2023-06-22T11:38:46;39.17;;;27.27;;
65759;SDS011;52496;51.082;5.066;2023-06-22T11:41:17;32.47;;;23.27;;
65759;SDS011;52496;51.082;5.066;2023-06-22T11:43:48;37.00;;;25.88;;
65759;SDS011;52496;51.082;5.066;2023-06-22T11:46:18;36.60;;;24.85;;
65759;SDS011;52496;51.082;5.066;2023-06-22T11:48:49;35.88;;;23.70;;
65759;SDS011;52496;51.082;5.066;2023-06-22T11:51:20;35.47;;;23.15;;
65759;SDS011;52496;51.082;5.066;2023-06-22T11:53:50;41.72;;;26.70;;
65759;SDS011;52496;51.082;5.066;2023-06-22T11:56:21;27.80;;;20.50;;
65759;SDS011;52496;51.082;5.066;2023-06-22T11:58:51;32.15;;;22.88;;
65759;SDS011;52496;51.082;5.066;2023-06-22T12:01:24;32.50;;;23.83;;
65759;SDS011;52496;51.082;5.066;2023-06-22T12:03:54;31.38;;;24.70;;
65759;SDS011;52496;51.082;5.066;2023-06-22T12:06:25;33.45;;;24.02;;
65759;SDS011;52496;51.082;5.066;2023-06-22T12:08:55;33.65;;;24.17;;
65759;SDS011;52496;51.082;5.066;2023-06-22T12:11:27;32.53;;;23.13;;
65759;SDS011;52496;51.082;5.066;2023-06-22T12:13:57;27.77;;;21.33;;
65759;SDS011;52496;51.082;5.066;2023-06-22T12:16:31;29.58;;;22.65;;
65759;SDS011;52496;51.082;5.066;2023-06-22T12:19:02;30.00;;;21.70;;
65759;SDS011;52496;51.082;5.066;2023-06-22T12:21:32;34.95;;;24.00;;
65759;SDS011;52496;51.082;5.066;2023-06-22T12:24:03;34.60;;;25.45;;
65759;SDS011;52496;51.082;5.066;2023-06-22T12:26:33;33.65;;;23.20;;
65759;SDS011;52496;51.082;5.066;2023-06-22T12:29:04;33.10;;;23.60;;
65759;SDS011;52496;51.082;5.066;2023-06-22T12:31:35;37.30;;;26.38;;
65759;SDS011;52496;51.082;5.066;2023-06-22T12:34:07;31.15;;;22.85;;
65759;SDS011;52496;51.082;5.066;2023-06-22T12:36:37;33.97;;;23.33;;
65759;SDS011;52496;51.082;5.066;2023-06-22T12:39:08;36.83;;;25.10;;
65759;SDS011;52496;51.082;5.066;2023-06-22T12:41:38;39.20;;;25.67;;
65759;SDS011;52496;51.082;5.066;2023-06-22T12:44:09;36.53;;;26.08;;
65759;SDS011;52496;51.082;5.066;2023-06-22T12:46:39;37.95;;;26.40;;
65759;SDS011;52496;51.082;5.066;2023-06-22T12:49:11;36.15;;;27.35;;
65759;SDS011;52496;51.082;5.066;2023-06-22T12:51:42;40.55;;;26.38;;
65759;SDS011;52496;51.082;5.066;2023-06-22T12:54:14;40.47;;;28.50;;
65759;SDS011;52496;51.082;5.066;2023-06-22T12:56:44;45.80;;;29.02;;
65759;SDS011;52496;51.082;5.066;2023-06-22T12:59:15;42.97;;;26.95;;
65759;SDS011;52496;51.082;5.066;2023-06-22T13:01:47;42.28;;;28.65;;
65759;SDS011;52496;51.082;5.066;2023-06-22T13:04:18;31.00;;;23.77;;
65759;SDS011;52496;51.082;5.066;2023-06-22T13:06:48;35.38;;;25.38;;
65759;SDS011;52496;51.082;5.066;2023-06-22T13:09:19;37.53;;;27.70;;
65759;SDS011;52496;51.082;5.066;2023-06-22T13:11:50;34.40;;;24.67;;
65759;SDS011;52496;51.082;5.066;2023-06-22T13:14:21;41.95;;;28.95;;
65759;SDS011;52496;51.082;5.066;2023-06-22T13:16:51;33.80;;;25.10;;
65759;SDS011;52496;51.082;5.066;2023-06-22T13:19:22;36.10;;;25.98;;
65759;SDS011;52496;51.082;5.066;2023-06-22T13:21:52;34.92;;;25.45;;
65759;SDS011;52496;51.082;5.066;2023-06-22T13:24:23;34.60;;;25.73;;
65759;SDS011;52496;51.082;5.066;2023-06-22T13:26:53;36.65;;;27.00;;
65759;SDS011;52496;51.082;5.066;2023-06-22T13:29:25;35.13;;;26.75;;
65759;SDS011;52496;51.082;5.066;2023-06-22T13:31:55;35.75;;;25.92;;
65759;SDS011;52496;51.082;5.066;2023-06-22T13:34:27;35.78;;;25.88;;
65759;SDS011;52496;51.082;5.066;2023-06-22T13:36:57;35.28;;;26.02;;
65759;SDS011;52496;51.082;5.066;2023-06-22T13:39:28;36.25;;;25.73;;
65759;SDS011;52496;51.082;5.066;2023-06-22T13:41:59;36.22;;;26.70;;
65759;SDS011;52496;51.082;5.066;2023-06-22T13:44:29;34.45;;;24.98;;
65759;SDS011;52496;51.082;5.066;2023-06-22T13:47:00;36.20;;;25.02;;
65759;SDS011;52496;51.082;5.066;2023-06-22T13:49:30;34.03;;;25.85;;
65759;SDS011;52496;51.082;5.066;2023-06-22T13:52:01;34.10;;;26.00;;
65759;SDS011;52496;51.082;5.066;2023-06-22T13:54:33;32.42;;;23.30;;
65759;SDS011;52496;51.082;5.066;2023-06-22T13:57:04;36.22;;;25.50;;
65759;SDS011;52496;51.082;5.066;2023-06-22T13:59:34;33.50;;;24.95;;
65759;SDS011;52496;51.082;5.066;2023-06-22T14:02:05;39.03;;;28.83;;
65759;SDS011;52496;51.082;5.066;2023-06-22T14:04:36;37.13;;;25.08;;
65759;SDS011;52496;51.082;5.066;2023-06-22T14:07:07;33.03;;;23.67;;
65759;SDS011;52496;51.082;5.066;2023-06-22T14:09:37;33.13;;;24.95;;
65759;SDS011;52496;51.082;5.066;2023-06-22T14:12:08;32.38;;;24.10;;
65759;SDS011;52496;51.082;5.066;2023-06-22T14:14:40;34.80;;;24.92;;
65759;SDS011;52496;51.082;5.066;2023-06-22T14:17:10;31.50;;;21.52;;
65759;SDS011;52496;51.082;5.066;2023-06-22T14:19:41;31.48;;;24.67;;
65759;SDS011;52496;51.082;5.066;2023-06-22T14:22:11;39.92;;;25.73;;
65759;SDS011;52496;51.082;5.066;2023-06-22T14:24:42;37.22;;;25.95;;
65759;SDS011;52496;51.082;5.066;2023-06-22T14:27:12;35.97;;;26.48;;
65759;SDS011;52496;51.082;5.066;2023-06-22T14:29:43;39.47;;;25.85;;
65759;SDS011;52496;51.082;5.066;2023-06-22T14:32:15;32.22;;;23.67;;
65759;SDS011;52496;51.082;5.066;2023-06-22T14:34:46;36.30;;;23.45;;
65759;SDS011;52496;51.082;5.066;2023-06-22T14:37:16;31.73;;;23.55;;
65759;SDS011;52496;51.082;5.066;2023-06-22T14:39:47;30.83;;;22.10;;
65759;SDS011;52496;51.082;5.066;2023-06-22T14:42:18;27.83;;;21.17;;
65759;SDS011;52496;51.082;5.066;2023-06-22T14:44:48;27.52;;;18.70;;
65759;SDS011;52496;51.082;5.066;2023-06-22T14:47:19;24.13;;;17.80;;
65759;SDS011;52496;51.082;5.066;2023-06-22T14:49:51;24.70;;;17.70;;
65759;SDS011;52496;51.082;5.066;2023-06-22T14:52:21;26.55;;;17.45;;
65759;SDS011;52496;51.082;5.066;2023-06-22T14:54:52;23.05;;;16.35;;
65759;SDS011;52496;51.082;5.066;2023-06-22T14:57:22;23.67;;;16.05;;
65759;SDS011;52496;51.082;5.066;2023-06-22T14:59:53;22.50;;;15.15;;
65759;SDS011;52496;51.082;5.066;2023-06-22T15:02:24;23.73;;;15.70;;